Lincoln, NM (88338)

12:53 PM MDT on September 18, 2014 (GMT -0600)
Sierra Blanca Regional | Change Station
CLOSE
Current Station
Airport
Location: Ruidoso,
Elevation: 6811 ft
Nearby Weather Stations
Active Advisory: Flash Flood Watch Active Notice: Public Information Statement

Elev 6811 ft 33.46 °N, 105.53 °W | Updated 18 minutes ago

Mostly Cloudy
Mostly Cloudy
64 °F
Feels Like 64 °F
N
10
Wind Variable Wind from SE

Today
High -- | Low -- °F
--% Chance of Precip.
Yesterday
High -- | Low -- °F
Precip. -- in
6:47 AM 7:04 PM
Waning Crescent, 25% visible
Pressure 30.17 in
Visibility 10.0 miles
Clouds Mostly Cloudy 6500 ft
Dew Point 50 °F
Humidity 59%
Rainfall 0.00 in
Snow Depth 1 in , 2 in , 1 in
UV 5 out of 12
Pollen 3.30 out of 12
Air Quality Not available.
Flu Activity Not available.
METAR KSRR 181835Z AUTO 14009KT 10SM BKN065 18/10 A3017 RMK AO2

More Conditions Fewer Conditions

Pressure 30.17 in
Visibility 10.0 miles
Clouds Mostly Cloudy 6500 ft
Dew Point 50 °F
Humidity 59%
Rainfall 0.00 in
Snow Depth 1 in , 2 in , 1 in
UV 5 out of 12
Pollen 3.30 out of 12
Air Quality Not available.
Flu Activity Not available.
METAR KSRR 181835Z AUTO 14009KT 10SM BKN065 18/10 A3017 RMK AO2

More Conditions Fewer Conditions

Nowcast | as of 11:57 am MDT on September 18, 2014

Showers and a few thunderstorms will expand over east central and southeast New Mexico through the mid afternoon hours. Rainfall amounts with these storms will be between one half and one inch per hour. The heaviest rain will be found from near Milnesand... northward to Portales...Clovis and Ranchvale. Additional storm activity will develop between Santa Rosa and Tucumcari...while a few sprinkles will continue across Lincoln and Chaves counties. Areas that receive heavy rainfall may see ponding of water on roadways...especially in low spots or poor drainage areas. Showers and thunderstorms will continue to increase in coverage through the afternoon.

×

10-Day Weather Forecast

Almanac

Astronomy

Sep. 18, 2014 Rise Set
Actual Time 6:47 AM MDT 7:04 PM MDT
Civil Twilight 6:22 AM MDT 7:29 PM MDT
Nautical Twilight 5:53 AM MDT 7:58 PM MDT
Astronomical Twilight 5:24 AM MDT 8:27 PM MDT
Moon 1:53 AM MDT 3:46 PM MDT
Length of Visible Light 13h 06m
Length of Day
12h 16m
Tomorrow will be 2m 4s shorter.
Waning Crescent, 25% of the Moon is Illuminated
Today
Waning Crescent
Sep 24
New
Oct 1
First Quarter
Oct 8
Full
Oct 15
Last Quarter

Today's Extremes

State Highs State Lows

Community

WunderPhotos

Upload Photos

1,754,417 photos uploaded!

Nearby

Snow Depth

Station Depth Elevation
Wesner Springs 1 in 11120 ft
Silver Creek Divide 2 in 9000 ft
Sierra Blanca 1 in 10280 ft
Santa Fe 0 in 11445 ft
Quemazon 0 in 9500 ft

Earthquake Activity

City Distance Mag. Time & Date
No recent earthquake activity has been reported nearby.
Minimum magnitude displayed is 2.5.

Coastal Water Temperatures

Place Temperature
No Stations Reporting

Nearby Weather Stations